Time;durP1;ratioP1;P1;durP2;ratioP2;P2;SDS_P1;SDS_P2;PMS_P1;PMS_P2;Temp;Humidity;BMP_temperature;BMP_pressure;BME280_temperature;BME280_humidity;BME280_pressure;Samples;Min_cycle;Max_cycle;Signal;HPM_P1;HPM_P2
2022/01/11 00:00:35;;;;;;;38.10;16.95;;;2.30;99.90;;;;;;4972777;28;20027;-81
2022/01/11 00:03:02;;;;;;;32.63;15.43;;;2.30;99.90;;;;;;4973891;28;20062;-82
2022/01/11 00:05:35;;;;;;;32.70;16.05;;;2.40;99.90;;;;;;4964461;28;20081;-81
2022/01/11 00:08:01;;;;;;;30.88;15.95;;;2.30;99.90;;;;;;4970340;28;20019;-81
2022/01/11 00:10:31;;;;;;;35.67;16.35;;;2.40;99.90;;;;;;4968644;28;20046;-82
2022/01/11 00:12:59;;;;;;;36.08;17.67;;;2.30;99.90;;;;;;4972922;28;20022;-82
2022/01/11 00:15:26;;;;;;;37.88;18.23;;;2.40;99.90;;;;;;4971902;28;20031;-82
2022/01/11 00:17:51;;;;;;;34.00;17.35;;;2.30;99.90;;;;;;4971258;28;20113;-82
2022/01/11 00:20:19;;;;;;;42.15;18.15;;;2.30;99.90;;;;;;4975336;28;20099;-82
2022/01/11 00:25:29;;;;;;;41.40;18.35;;;2.30;99.90;;;;;;4967424;28;20038;-82
2022/01/11 00:27:55;;;;;;;32.95;16.50;;;2.40;99.90;;;;;;4970482;28;20110;-82
2022/01/11 00:30:22;;;;;;;31.60;17.05;;;2.40;99.90;;;;;;4982773;23;20052;-78
2022/01/11 00:32:52;;;;;;;38.25;17.52;;;2.30;99.90;;;;;;4986656;28;20030;-79
2022/01/11 00:35:23;;;;;;;38.88;17.60;;;2.40;99.90;;;;;;4991257;28;20033;-78
2022/01/11 00:37:49;;;;;;;38.10;17.48;;;2.30;99.90;;;;;;4995036;28;20029;-78
2022/01/11 00:40:15;;;;;;;39.63;17.90;;;2.30;99.90;;;;;;4984971;28;20679;-78
2022/01/11 00:42:41;;;;;;;36.03;17.85;;;2.40;99.90;;;;;;4985617;28;20045;-77
2022/01/11 00:45:10;;;;;;;34.28;16.58;;;2.40;99.90;;;;;;4985731;28;20635;-78
2022/01/11 00:47:36;;;;;;;30.52;15.65;;;2.30;99.90;;;;;;4983724;28;20030;-78
2022/01/11 00:50:03;;;;;;;34.83;15.95;;;2.40;99.90;;;;;;4983449;28;20034;-77
2022/01/11 00:52:29;;;;;;;33.80;15.13;;;2.40;99.90;;;;;;4972002;28;20041;-78
2022/01/11 00:54:55;;;;;;;26.25;14.23;;;2.40;99.90;;;;;;4971223;28;20042;-78
2022/01/11 00:57:22;;;;;;;36.45;16.02;;;2.30;99.90;;;;;;4991053;28;20052;-78
2022/01/11 00:59:47;;;;;;;27.17;15.48;;;2.30;99.90;;;;;;4971083;28;20587;-78
2022/01/11 01:02:14;;;;;;;32.83;15.63;;;2.30;99.90;;;;;;4987706;28;20021;-78
2022/01/11 01:04:39;;;;;;;42.58;16.60;;;2.30;99.90;;;;;;4989040;28;20483;-79
2022/01/11 01:07:05;;;;;;;35.10;16.88;;;2.30;99.90;;;;;;4989219;28;20049;-79
2022/01/11 01:09:41;;;;;;;29.67;15.23;;;2.30;99.90;;;;;;4991703;28;20095;-79
2022/01/11 01:12:08;;;;;;;37.35;15.43;;;2.30;99.90;;;;;;4970062;28;20027;-78
2022/01/11 01:14:34;;;;;;;36.05;17.05;;;2.20;99.90;;;;;;4987619;28;20506;-78
2022/01/11 01:16:59;;;;;;;36.03;15.82;;;2.30;99.90;;;;;;4994576;28;20061;-78
2022/01/11 01:19:27;;;;;;;35.45;16.70;;;2.20;99.90;;;;;;4972811;28;20065;-79
2022/01/11 01:21:54;;;;;;;34.17;16.40;;;2.20;99.90;;;;;;4991471;28;20041;-78
2022/01/11 01:24:20;;;;;;;46.00;17.77;;;2.20;99.90;;;;;;4987450;28;20101;-78
2022/01/11 01:26:46;;;;;;;39.85;16.98;;;2.20;99.90;;;;;;4987521;28;20023;-78
2022/01/11 01:29:12;;;;;;;39.88;17.38;;;2.20;99.90;;;;;;4991980;28;20030;-78
2022/01/11 01:31:38;;;;;;;32.20;15.40;;;2.20;99.90;;;;;;4987425;28;20122;-78
2022/01/11 01:34:04;;;;;;;35.58;17.98;;;2.10;99.90;;;;;;4992214;28;20072;-78
2022/01/11 01:36:30;;;;;;;35.40;15.70;;;2.10;99.90;;;;;;4995325;28;20229;-78
2022/01/11 01:38:56;;;;;;;36.70;17.02;;;2.10;99.90;;;;;;4990894;28;22238;-79
2022/01/11 01:41:22;;;;;;;37.08;17.02;;;2.10;99.90;;;;;;4990789;28;20560;-79
2022/01/11 01:43:53;;;;;;;39.15;16.60;;;2.10;99.90;;;;;;4982386;28;20033;-78
2022/01/11 01:46:19;;;;;;;36.40;17.02;;;2.10;99.90;;;;;;4967313;28;20063;-78
2022/01/11 01:48:45;;;;;;;37.10;16.50;;;2.10;99.90;;;;;;4989957;28;20053;-78
2022/01/11 01:51:12;;;;;;;40.67;17.23;;;2.10;99.90;;;;;;4991398;28;20092;-78
2022/01/11 01:53:41;;;;;;;40.53;16.67;;;2.20;99.90;;;;;;4992484;28;20022;-78
2022/01/11 01:56:07;;;;;;;36.30;16.15;;;2.20;99.90;;;;;;4973567;28;20083;-78
2022/01/11 01:58:33;;;;;;;33.85;16.75;;;2.10;99.90;;;;;;4987030;28;20026;-78
2022/01/11 02:01:03;;;;;;;42.17;16.70;;;2.10;99.90;;;;;;4999391;28;20169;-78
2022/01/11 02:03:36;;;;;;;44.40;17.42;;;2.10;99.90;;;;;;4988776;28;20029;-78
2022/01/11 02:06:03;;;;;;;31.00;16.85;;;2.10;99.90;;;;;;4975216;28;20502;-78
2022/01/11 02:08:29;;;;;;;36.08;17.45;;;2.00;99.90;;;;;;4994201;28;20089;-78
2022/01/11 02:10:54;;;;;;;41.83;18.15;;;2.00;99.90;;;;;;4990145;28;20050;-79
2022/01/11 02:13:20;;;;;;;33.70;15.73;;;2.00;99.90;;;;;;4995381;28;20030;-78
2022/01/11 02:15:46;;;;;;;40.28;17.88;;;2.00;99.90;;;;;;4986403;28;20023;-78
2022/01/11 02:18:19;;;;;;;42.63;18.73;;;2.00;99.90;;;;;;4989560;28;20023;-78
2022/01/11 02:20:46;;;;;;;36.15;17.48;;;2.00;99.90;;;;;;4987702;28;20027;-79
2022/01/11 02:23:13;;;;;;;32.30;17.20;;;2.00;99.90;;;;;;4973197;28;20053;-78
2022/01/11 02:25:40;;;;;;;39.85;18.25;;;2.00;99.90;;;;;;4974094;28;20482;-79
2022/01/11 02:28:06;;;;;;;36.67;18.42;;;2.10;99.90;;;;;;4994427;28;20030;-78
2022/01/11 02:30:34;;;;;;;34.80;17.58;;;2.10;99.90;;;;;;4980035;28;20041;-79
2022/01/11 02:33:03;;;;;;;41.67;17.30;;;2.10;99.90;;;;;;4997484;28;20026;-78
2022/01/11 02:35:29;;;;;;;33.75;17.75;;;2.10;99.90;;;;;;4971672;28;20555;-78
2022/01/11 02:37:55;;;;;;;40.78;18.20;;;2.10;99.90;;;;;;4990524;28;20038;-78
2022/01/11 02:40:21;;;;;;;36.53;18.35;;;2.10;99.90;;;;;;4987881;28;20030;-77
2022/01/11 02:42:46;;;;;;;31.52;16.30;;;2.00;99.90;;;;;;4986662;28;20034;-78
2022/01/11 02:45:19;;;;;;;37.83;17.35;;;2.00;99.90;;;;;;4973025;28;20027;-78
2022/01/11 02:47:47;;;;;;;37.30;16.38;;;2.00;99.90;;;;;;4971598;28;20042;-81
2022/01/11 02:50:14;;;;;;;40.30;17.90;;;2.00;99.90;;;;;;4970653;28;20113;-80
2022/01/11 02:52:40;;;;;;;36.47;18.27;;;2.00;99.90;;;;;;4996462;28;20136;-81
2022/01/11 02:55:10;;;;;;;42.42;19.15;;;2.00;99.90;;;;;;4986842;28;20447;-80
2022/01/11 02:57:36;;;;;;;40.30;18.00;;;2.00;99.90;;;;;;4987770;28;20077;-81
2022/01/11 03:00:06;;;;;;;40.20;18.70;;;2.00;99.90;;;;;;4990692;28;20109;-81
2022/01/11 03:02:32;;;;;;;48.55;19.27;;;2.00;99.90;;;;;;4980878;28;20033;-81
2022/01/11 03:04:57;;;;;;;43.15;19.00;;;1.90;99.90;;;;;;4991605;28;20038;-81
2022/01/11 03:07:23;;;;;;;39.17;17.85;;;1.90;99.90;;;;;;4974492;28;20036;-81
2022/01/11 03:10:02;;;;;;;35.10;17.10;;;1.90;99.90;;;;;;4994796;28;20113;-80
2022/01/11 03:12:29;;;;;;;33.92;16.45;;;1.80;99.90;;;;;;4971441;28;20031;-82
2022/01/11 03:14:55;;;;;;;41.17;18.67;;;1.80;99.90;;;;;;4991575;28;20022;-81
2022/01/11 03:17:20;;;;;;;39.38;17.80;;;1.80;99.90;;;;;;4985320;28;20085;-81
2022/01/11 03:19:47;;;;;;;47.85;20.60;;;1.80;99.90;;;;;;4988500;28;20057;-81
2022/01/11 03:22:13;;;;;;;37.45;18.52;;;1.80;99.90;;;;;;4984575;28;20059;-80
2022/01/11 03:24:38;;;;;;;33.88;17.27;;;1.80;99.90;;;;;;4987932;28;20112;-81
2022/01/11 03:27:07;;;;;;;38.83;19.17;;;1.80;99.90;;;;;;4982740;28;20386;-80
2022/01/11 03:29:34;;;;;;;39.78;18.83;;;1.90;99.90;;;;;;4989036;28;20038;-80
2022/01/11 03:32:00;;;;;;;34.20;17.23;;;1.90;99.90;;;;;;4989826;28;20080;-80
2022/01/11 03:34:25;;;;;;;33.03;17.25;;;1.90;99.90;;;;;;4976179;28;20455;-80
2022/01/11 03:36:51;;;;;;;38.90;18.30;;;1.90;99.90;;;;;;4972170;28;20810;-80
2022/01/11 03:39:17;;;;;;;44.20;18.27;;;1.90;99.90;;;;;;4975404;28;20021;-81
2022/01/11 03:41:43;;;;;;;40.75;18.67;;;1.90;99.90;;;;;;4995115;28;20125;-80
2022/01/11 03:44:08;;;;;;;39.53;18.88;;;2.00;99.90;;;;;;4994333;28;20057;-80
2022/01/11 03:46:34;;;;;;;41.08;18.75;;;2.00;99.90;;;;;;4990327;28;20036;-81
2022/01/11 03:49:00;;;;;;;40.90;18.42;;;2.00;99.90;;;;;;4990255;28;20054;-80
2022/01/11 03:51:26;;;;;;;42.65;18.67;;;2.00;99.90;;;;;;4984416;28;20058;-81
2022/01/11 03:54:02;;;;;;;44.10;19.80;;;2.10;99.90;;;;;;4996093;28;20397;-81
2022/01/11 03:56:28;;;;;;;37.97;16.92;;;2.10;99.90;;;;;;4985654;28;20106;-81
2022/01/11 03:58:54;;;;;;;35.03;16.88;;;2.20;99.90;;;;;;4998867;28;20101;-81
2022/01/11 04:01:20;;;;;;;37.45;18.80;;;2.20;99.90;;;;;;4978021;28;20061;-80
2022/01/11 04:03:47;;;;;;;40.72;18.15;;;2.30;99.90;;;;;;4988186;28;20022;-79
2022/01/11 04:06:16;;;;;;;40.03;16.60;;;2.30;99.90;;;;;;4988883;28;20030;-79
2022/01/11 04:08:43;;;;;;;39.15;17.63;;;2.30;99.90;;;;;;4988048;28;20556;-81
2022/01/11 04:11:09;;;;;;;39.85;18.10;;;2.40;99.90;;;;;;4977771;28;20715;-80
2022/01/11 04:13:35;;;;;;;40.75;17.70;;;2.40;99.90;;;;;;4995426;28;20045;-81
2022/01/11 04:16:00;;;;;;;40.75;18.73;;;2.40;99.90;;;;;;4988334;28;20511;-80
2022/01/11 04:18:26;;;;;;;35.72;17.08;;;2.40;99.90;;;;;;4991666;28;20022;-81
2022/01/11 04:20:52;;;;;;;33.15;17.13;;;2.40;99.90;;;;;;4995752;28;20390;-80
2022/01/11 04:23:18;;;;;;;50.75;19.48;;;2.40;99.90;;;;;;4988048;28;20027;-80
2022/01/11 04:25:44;;;;;;;39.63;18.65;;;2.40;99.90;;;;;;4977767;28;20022;-81
2022/01/11 04:28:10;;;;;;;48.08;19.90;;;2.30;99.90;;;;;;4992014;28;20490;-80
2022/01/11 04:30:36;;;;;;;39.50;19.13;;;2.30;99.90;;;;;;4990745;28;20070;-81
2022/01/11 04:33:02;;;;;;;37.97;18.83;;;2.20;99.90;;;;;;4990042;28;20033;-81
2022/01/11 04:35:28;;;;;;;40.47;18.17;;;2.20;99.90;;;;;;4992710;28;20030;-81
2022/01/11 04:37:54;;;;;;;43.40;19.40;;;2.30;99.90;;;;;;4997618;28;20045;-81
2022/01/11 04:40:19;;;;;;;42.97;18.55;;;2.30;99.90;;;;;;4995215;28;20061;-81
2022/01/11 04:42:45;;;;;;;37.70;18.00;;;2.30;99.90;;;;;;4982111;28;20033;-81
2022/01/11 04:45:14;;;;;;;47.85;18.83;;;2.30;99.90;;;;;;4996814;28;20441;-82
2022/01/11 04:47:41;;;;;;;41.50;18.55;;;2.30;99.90;;;;;;4992943;28;20723;-81
2022/01/11 04:50:09;;;;;;;45.67;19.42;;;2.40;99.90;;;;;;4993176;28;20034;-82
2022/01/11 04:52:35;;;;;;;46.15;19.77;;;2.40;99.90;;;;;;4993234;28;20057;-82
2022/01/11 04:55:01;;;;;;;44.78;19.95;;;2.40;99.90;;;;;;4996974;28;20495;-82
2022/01/11 04:57:27;;;;;;;44.63;19.33;;;2.40;99.90;;;;;;4997560;28;20475;-81
2022/01/11 04:59:53;;;;;;;48.03;21.45;;;2.40;99.90;;;;;;4996673;28;20018;-80
2022/01/11 05:02:19;;;;;;;43.55;19.63;;;2.30;99.90;;;;;;4993525;28;20022;-81
2022/01/11 05:04:45;;;;;;;51.17;21.50;;;2.30;99.90;;;;;;4982138;28;20121;-82
2022/01/11 05:07:10;;;;;;;54.58;22.05;;;2.30;99.90;;;;;;4978592;28;20078;-81
2022/01/11 05:09:36;;;;;;;59.47;21.65;;;2.20;99.90;;;;;;4989423;28;20398;-81
2022/01/11 05:12:02;;;;;;;49.95;21.85;;;2.20;99.90;;;;;;4988315;28;20038;-81
2022/01/11 05:14:27;;;;;;;50.72;19.48;;;2.10;99.90;;;;;;4993361;28;20030;-81
2022/01/11 05:16:53;;;;;;;45.78;19.63;;;2.10;99.90;;;;;;4998598;28;20029;-80
2022/01/11 05:19:19;;;;;;;48.35;21.08;;;2.10;99.90;;;;;;4978443;28;20037;-81
2022/01/11 05:21:44;;;;;;;50.95;19.77;;;2.10;99.90;;;;;;4993868;28;20023;-80
2022/01/11 05:24:11;;;;;;;42.10;19.35;;;2.20;99.90;;;;;;4994188;28;20032;-81
2022/01/11 05:26:37;;;;;;;44.40;20.65;;;2.20;99.90;;;;;;4995493;28;20113;-81
2022/01/11 05:29:04;;;;;;;47.42;19.63;;;2.20;99.90;;;;;;4989598;28;20045;-81
2022/01/11 05:31:29;;;;;;;48.13;20.17;;;2.20;99.90;;;;;;4984385;28;20030;-81
2022/01/11 05:33:55;;;;;;;54.63;21.50;;;2.20;99.90;;;;;;4993242;28;20025;-82
2022/01/11 05:36:21;;;;;;;50.05;21.65;;;2.20;99.90;;;;;;4989587;28;20027;-81
2022/01/11 05:38:46;;;;;;;50.05;21.50;;;2.20;99.90;;;;;;4996550;28;20841;-81
2022/01/11 05:41:12;;;;;;;49.38;22.23;;;2.20;99.90;;;;;;4975404;28;20034;-81
2022/01/11 05:43:38;;;;;;;60.90;23.50;;;2.10;99.90;;;;;;4994910;28;20027;-81
2022/01/11 05:46:06;;;;;;;51.65;20.52;;;2.00;99.90;;;;;;4989819;28;20035;-80
2022/01/11 05:48:32;;;;;;;48.13;22.17;;;2.00;99.90;;;;;;4990458;28;20371;-80
2022/01/11 05:50:59;;;;;;;41.25;18.50;;;2.00;99.90;;;;;;4971510;28;20027;-80
2022/01/11 05:53:26;;;;;;;39.75;18.85;;;1.90;99.90;;;;;;4998300;28;20057;-80
2022/01/11 05:55:51;;;;;;;48.25;19.80;;;1.90;99.90;;;;;;4973305;28;20060;-80
2022/01/11 05:58:17;;;;;;;57.58;22.80;;;1.90;99.90;;;;;;4971543;28;20022;-80
2022/01/11 06:00:43;;;;;;;54.38;23.50;;;1.90;99.90;;;;;;4975158;28;20030;-80
2022/01/11 06:03:08;;;;;;;60.70;22.83;;;1.80;99.90;;;;;;4978957;28;20025;-79
2022/01/11 06:05:38;;;;;;;57.88;22.50;;;1.80;99.90;;;;;;4985076;28;20386;-78
2022/01/11 06:08:05;;;;;;;61.45;25.17;;;1.80;99.90;;;;;;4991810;28;20487;-78
2022/01/11 06:10:31;;;;;;;62.97;25.05;;;1.80;99.90;;;;;;4990315;28;20113;-78
2022/01/11 06:12:56;;;;;;;55.72;24.25;;;1.80;99.90;;;;;;4994359;28;20601;-78
2022/01/11 06:15:22;;;;;;;64.93;24.77;;;1.80;99.90;;;;;;4989735;28;20023;-78
2022/01/11 06:17:48;;;;;;;61.33;24.20;;;1.80;99.90;;;;;;4991357;28;20068;-88
2022/01/11 06:20:13;;;;;;;66.18;24.45;;;1.80;99.90;;;;;;4987429;28;20029;-80
2022/01/11 06:22:39;;;;;;;65.82;27.80;;;1.90;99.90;;;;;;4999630;28;20037;-81
2022/01/11 06:25:06;;;;;;;62.42;25.77;;;1.90;99.90;;;;;;4993395;28;20670;-80
2022/01/11 06:27:33;;;;;;;58.40;25.88;;;2.00;99.90;;;;;;4983408;28;20682;-81
2022/01/11 06:29:59;;;;;;;60.08;25.58;;;2.00;99.90;;;;;;4995404;23;20038;-81
2022/01/11 06:32:25;;;;;;;56.50;24.45;;;2.00;99.90;;;;;;4988833;28;20023;-82
2022/01/11 06:34:53;;;;;;;55.58;25.05;;;1.90;99.90;;;;;;4982653;28;20116;-83
2022/01/11 06:37:19;;;;;;;69.30;26.63;;;1.90;99.90;;;;;;4986887;28;20033;-84
2022/01/11 06:39:45;;;;;;;52.67;24.70;;;2.00;99.90;;;;;;4979435;28;20057;-82
2022/01/11 06:42:10;;;;;;;58.92;25.02;;;2.00;99.90;;;;;;4991936;28;20042;-82
2022/01/11 06:44:38;;;;;;;63.67;24.77;;;1.90;99.90;;;;;;4973257;28;20035;-82
2022/01/11 06:47:05;;;;;;;55.95;25.30;;;1.90;99.90;;;;;;4985555;28;20030;-81
2022/01/11 06:49:30;;;;;;;54.33;24.27;;;1.90;99.90;;;;;;4993108;28;20065;-81
2022/01/11 06:51:56;;;;;;;57.45;23.65;;;1.90;99.90;;;;;;4971382;28;20112;-83
2022/01/11 06:54:22;;;;;;;56.15;23.23;;;1.90;99.90;;;;;;4989911;28;20369;-83
2022/01/11 06:56:47;;;;;;;52.80;23.25;;;1.90;99.90;;;;;;4988406;28;20041;-82
2022/01/11 06:59:13;;;;;;;58.70;24.63;;;1.80;99.90;;;;;;4972814;28;20121;-82
2022/01/11 07:01:39;;;;;;;58.17;24.20;;;1.90;99.90;;;;;;4985159;28;20035;-83
2022/01/11 07:04:04;;;;;;;53.15;24.90;;;1.80;99.90;;;;;;4991946;28;20027;-82
2022/01/11 07:06:30;;;;;;;57.53;25.88;;;1.80;99.90;;;;;;4990329;28;20451;-83
2022/01/11 07:08:56;;;;;;;62.60;24.67;;;1.80;99.90;;;;;;4982971;28;20027;-82
2022/01/11 07:11:23;;;;;;;58.97;24.17;;;1.90;99.90;;;;;;4985380;28;20058;-83
2022/01/11 07:13:49;;;;;;;55.65;23.63;;;1.80;99.90;;;;;;4969858;28;20057;-83
2022/01/11 07:16:15;;;;;;;58.08;24.80;;;1.80;99.90;;;;;;4982915;28;20054;-82
2022/01/11 07:18:40;;;;;;;55.95;24.58;;;1.80;99.90;;;;;;4991043;28;20527;-82
2022/01/11 07:21:06;;;;;;;61.42;26.65;;;1.80;99.90;;;;;;4985068;28;20026;-84
2022/01/11 07:23:32;;;;;;;61.40;24.65;;;1.80;99.90;;;;;;4970449;28;20460;-80
2022/01/11 07:25:57;;;;;;;63.15;25.13;;;1.80;99.90;;;;;;4973427;28;20062;-83
2022/01/11 07:28:23;;;;;;;53.25;24.15;;;1.80;99.90;;;;;;4988514;28;20069;-83
2022/01/11 07:30:51;;;;;;;72.72;32.35;;;1.80;99.90;;;;;;4992366;28;20034;-82
2022/01/11 07:33:16;;;;;;;61.00;28.73;;;1.80;99.90;;;;;;4996011;28;20080;-82
2022/01/11 07:35:42;;;;;;;57.30;25.27;;;1.80;99.90;;;;;;4986967;28;20034;-84
2022/01/11 07:38:08;;;;;;;56.92;24.90;;;1.80;99.90;;;;;;4987106;28;20061;-83
2022/01/11 07:40:33;;;;;;;54.88;23.13;;;1.80;99.90;;;;;;4992442;28;20029;-84
2022/01/11 07:42:59;;;;;;;59.17;26.08;;;1.90;99.90;;;;;;4986293;28;20034;-81
2022/01/11 07:45:25;;;;;;;56.97;23.48;;;2.00;99.90;;;;;;4989509;28;20053;-84
2022/01/11 07:47:50;;;;;;;58.65;24.33;;;2.00;99.90;;;;;;4989219;28;20057;-87
2022/01/11 07:50:16;;;;;;;52.05;23.77;;;2.10;99.90;;;;;;4970936;28;20046;-85
2022/01/11 07:52:42;;;;;;;55.38;24.23;;;2.10;99.90;;;;;;4977021;28;20336;-85
2022/01/11 07:55:08;;;;;;;54.50;25.00;;;2.10;99.90;;;;;;4996972;28;20084;-85
2022/01/11 07:57:34;;;;;;;55.25;24.15;;;2.10;99.90;;;;;;4998327;28;20113;-84
2022/01/11 07:59:59;;;;;;;51.45;23.63;;;2.10;99.90;;;;;;4972537;28;20169;-85
2022/01/11 08:02:26;;;;;;;54.63;23.52;;;2.10;99.90;;;;;;4973468;28;20109;-84
2022/01/11 08:04:53;;;;;;;63.80;24.27;;;2.10;99.90;;;;;;4993890;28;20022;-85
2022/01/11 08:07:20;;;;;;;54.15;24.15;;;2.10;99.90;;;;;;4994460;28;20026;-84
2022/01/11 08:09:45;;;;;;;56.20;25.23;;;2.20;99.90;;;;;;4977648;28;20086;-84
2022/01/11 08:12:11;;;;;;;57.72;25.48;;;2.10;99.90;;;;;;4993687;28;20497;-84
2022/01/11 08:14:37;;;;;;;50.38;23.60;;;2.20;99.90;;;;;;4992333;28;20031;-85
2022/01/11 08:17:03;;;;;;;57.67;23.70;;;2.20;99.90;;;;;;4990523;28;20022;-84
2022/01/11 08:19:30;;;;;;;54.92;22.50;;;2.20;99.90;;;;;;4974283;28;20037;-84
2022/01/11 08:21:56;;;;;;;61.97;25.45;;;2.20;99.90;;;;;;4976726;28;20037;-84
2022/01/11 08:24:23;;;;;;;56.20;24.48;;;2.20;99.90;;;;;;4977603;28;20034;-83
2022/01/11 08:26:49;;;;;;;56.58;23.92;;;2.20;99.90;;;;;;4996214;28;20026;-84
2022/01/11 08:29:17;;;;;;;56.22;25.27;;;2.20;99.90;;;;;;4992559;28;20031;-84
2022/01/11 08:31:46;;;;;;;48.78;23.33;;;2.30;99.90;;;;;;4972543;28;20027;-84
2022/01/11 08:34:14;;;;;;;56.42;24.08;;;2.40;99.90;;;;;;4982608;28;20075;-84
2022/01/11 08:36:42;;;;;;;49.40;23.45;;;2.40;99.90;;;;;;4976507;28;20328;-85
2022/01/11 08:39:10;;;;;;;52.53;24.60;;;2.40;99.90;;;;;;4992816;28;20033;-84
2022/01/11 08:41:36;;;;;;;60.15;24.52;;;2.50;99.90;;;;;;4995158;28;20085;-84
2022/01/11 08:44:02;;;;;;;51.00;23.73;;;2.50;99.90;;;;;;4972417;28;20036;-85
2022/01/11 08:46:28;;;;;;;57.30;24.80;;;2.50;99.90;;;;;;4977389;28;20029;-86
2022/01/11 08:48:54;;;;;;;55.53;24.73;;;2.50;99.90;;;;;;4982102;28;20037;-84
2022/01/11 08:51:19;;;;;;;51.40;24.73;;;2.50;99.90;;;;;;4992325;28;20372;-85
2022/01/11 08:53:45;;;;;;;51.92;23.70;;;2.50;99.90;;;;;;4979969;28;20045;-83
2022/01/11 08:56:15;;;;;;;45.45;21.88;;;2.60;99.90;;;;;;4991894;28;20046;-85
2022/01/11 08:58:41;;;;;;;53.45;24.77;;;2.60;99.90;;;;;;4980440;28;20026;-84
2022/01/11 09:01:07;;;;;;;53.85;24.25;;;2.60;99.90;;;;;;4969373;28;20720;-85
2022/01/11 09:03:33;;;;;;;55.20;24.40;;;2.70;99.90;;;;;;4976189;28;20168;-84
2022/01/11 09:05:59;;;;;;;53.08;24.08;;;2.70;99.90;;;;;;4994179;28;20029;-85
2022/01/11 09:08:25;;;;;;;49.60;22.20;;;2.70;99.90;;;;;;4993787;28;20136;-85
2022/01/11 09:10:51;;;;;;;55.53;24.27;;;2.70;99.90;;;;;;4974803;28;20479;-84
2022/01/11 09:13:18;;;;;;;50.75;23.30;;;2.80;99.90;;;;;;4981161;28;20038;-84
2022/01/11 09:15:44;;;;;;;56.08;23.13;;;2.80;99.90;;;;;;4990567;28;20026;-84
2022/01/11 09:18:10;;;;;;;53.15;23.75;;;2.90;99.90;;;;;;4985739;28;20096;-84
2022/01/11 09:20:36;;;;;;;51.20;23.05;;;2.90;99.90;;;;;;4995282;28;20032;-85
2022/01/11 09:23:03;;;;;;;50.40;23.40;;;2.90;99.90;;;;;;4987215;28;20061;-85
2022/01/11 09:25:28;;;;;;;54.10;23.38;;;2.90;99.90;;;;;;4987705;28;20046;-84
2022/01/11 09:27:54;;;;;;;51.55;23.67;;;2.90;99.90;;;;;;4986491;28;20034;-85
2022/01/11 09:30:20;;;;;;;53.10;24.98;;;3.00;99.90;;;;;;4969759;28;20179;-85
2022/01/11 09:32:46;;;;;;;46.05;20.98;;;3.00;99.90;;;;;;4984637;28;20034;-85
2022/01/11 09:35:13;;;;;;;49.25;22.05;;;3.10;99.90;;;;;;4986633;28;20037;-85
2022/01/11 09:37:39;;;;;;;36.95;19.13;;;3.20;99.90;;;;;;4966278;28;20050;-86
2022/01/11 09:40:08;;;;;;;39.78;17.63;;;3.30;99.90;;;;;;4977143;28;20027;-85
2022/01/11 09:42:35;;;;;;;44.25;19.75;;;3.30;99.90;;;;;;4992968;28;20030;-85
2022/01/11 09:45:04;;;;;;;39.63;17.83;;;3.30;99.90;;;;;;4994247;28;20033;-85
2022/01/11 09:47:30;;;;;;;29.45;14.18;;;3.40;99.90;;;;;;4993991;28;20027;-85
2022/01/11 09:49:56;;;;;;;30.50;15.10;;;3.40;99.90;;;;;;4990558;28;20026;-85
2022/01/11 09:52:26;;;;;;;32.72;16.88;;;3.50;99.90;;;;;;4989971;28;20073;-85
2022/01/11 09:54:53;;;;;;;31.83;14.57;;;3.50;99.90;;;;;;4992282;28;20030;-83
2022/01/11 09:57:18;;;;;;;30.48;12.80;;;3.50;99.90;;;;;;4984035;28;20069;-85
2022/01/11 09:59:44;;;;;;;27.42;12.00;;;3.60;99.90;;;;;;4986154;28;20022;-85
2022/01/11 10:02:13;;;;;;;22.75;11.68;;;3.60;99.90;;;;;;4987314;28;20030;-85
2022/01/11 10:04:38;;;;;;;27.60;14.38;;;3.70;99.90;;;;;;5001825;28;20036;-85
2022/01/11 10:07:07;;;;;;;29.73;14.98;;;3.70;99.90;;;;;;4989698;28;20034;-85
2022/01/11 10:09:48;;;;;;;32.58;15.90;;;3.80;99.90;;;;;;4986196;28;20054;-85
2022/01/11 10:12:14;;;;;;;31.25;14.70;;;3.80;99.90;;;;;;4991984;28;20125;-85
2022/01/11 10:14:50;;;;;;;26.95;13.32;;;3.80;99.90;;;;;;4972394;28;20110;-85
2022/01/11 10:17:23;;;;;;;28.88;13.00;;;3.80;99.90;;;;;;4970171;28;20122;-85
2022/01/11 10:20:00;;;;;;;27.00;13.10;;;3.80;99.90;;;;;;4988216;28;20518;-85
2022/01/11 10:22:27;;;;;;;27.33;13.40;;;3.90;99.90;;;;;;5004823;28;20036;-84
2022/01/11 10:24:54;;;;;;;29.60;13.77;;;3.90;99.90;;;;;;4977196;28;20036;-85
2022/01/11 10:27:38;;;;;;;26.67;13.57;;;3.90;99.90;;;;;;4974380;28;20033;-85
2022/01/11 10:30:15;;;;;;;24.17;13.13;;;3.90;99.90;;;;;;4990669;28;20038;-85
2022/01/11 10:32:42;;;;;;;27.95;13.80;;;3.90;99.90;;;;;;4991803;28;20041;-85
2022/01/11 10:35:23;;;;;;;26.92;13.73;;;4.00;99.90;;;;;;4970987;28;20034;-85
2022/01/11 10:37:51;;;;;;;28.75;13.57;;;4.00;99.90;;;;;;4988940;28;20025;-84
2022/01/11 10:40:26;;;;;;;27.80;14.25;;;4.00;99.90;;;;;;4991227;28;20483;-85
2022/01/11 10:42:56;;;;;;;21.90;12.68;;;4.00;99.90;;;;;;4990003;28;20458;-86
2022/01/11 10:45:22;;;;;;;20.15;11.25;;;4.00;99.90;;;;;;4969274;28;20562;-84
2022/01/11 10:47:54;;;;;;;23.25;11.65;;;4.00;99.90;;;;;;4997334;28;20112;-83
2022/01/11 10:50:34;;;;;;;22.80;11.68;;;4.10;99.90;;;;;;4985248;28;20451;-82
2022/01/11 10:53:10;;;;;;;19.27;9.90;;;4.10;99.90;;;;;;4973758;28;20215;-82
2022/01/11 10:55:36;;;;;;;23.50;11.20;;;4.10;99.90;;;;;;4992129;28;20037;-81
2022/01/11 10:58:07;;;;;;;24.75;10.75;;;4.20;99.90;;;;;;4981219;28;20394;-83
2022/01/11 11:00:49;;;;;;;22.60;10.25;;;4.20;99.90;;;;;;4970799;28;20493;-83
2022/01/11 11:03:21;;;;;;;20.23;10.98;;;4.20;99.90;;;;;;4966333;28;20035;-85
2022/01/11 11:05:49;;;;;;;19.58;9.90;;;4.30;99.90;;;;;;4994077;28;20018;-82
2022/01/11 11:08:17;;;;;;;20.17;9.23;;;4.40;99.90;;;;;;4973542;28;20034;-82
2022/01/11 11:10:57;;;;;;;16.88;8.23;;;4.40;99.90;;;;;;4977875;28;20034;-83
2022/01/11 11:13:51;;;;;;;16.75;8.13;;;4.40;99.90;;;;;;4988838;28;20026;-83
2022/01/11 11:16:27;;;;;;;11.23;6.10;;;4.40;99.90;;;;;;4984881;28;20030;-83
2022/01/11 11:18:58;;;;;;;13.35;7.45;;;4.40;99.90;;;;;;4986934;28;20087;-82
2022/01/11 11:21:33;;;;;;;15.73;7.15;;;4.40;99.90;;;;;;4997141;28;20159;-82
2022/01/11 11:24:10;;;;;;;11.65;6.25;;;4.40;99.90;;;;;;4996164;28;20075;-83
2022/01/11 11:26:41;;;;;;;11.25;5.72;;;4.40;99.90;;;;;;4976591;28;20033;-85
2022/01/11 11:29:11;;;;;;;14.77;6.85;;;4.40;99.90;;;;;;4976218;28;20141;-84
2022/01/11 11:31:38;;;;;;;13.50;6.55;;;4.40;99.90;;;;;;4978503;28;20058;-84
2022/01/11 11:34:07;;;;;;;13.07;6.28;;;4.50;99.90;;;;;;4996878;28;20057;-85
2022/01/11 11:36:37;;;;;;;12.38;6.82;;;4.50;99.90;;;;;;4993713;28;20033;-83
2022/01/11 11:39:13;;;;;;;16.67;7.63;;;4.70;99.90;;;;;;4993442;28;20029;-84
2022/01/11 11:41:46;;;;;;;16.65;8.43;;;4.70;99.90;;;;;;4999312;28;20030;-83
2022/01/11 11:44:21;;;;;;;17.15;8.02;;;4.70;99.90;;;;;;4994265;28;20352;-84
2022/01/11 11:46:52;;;;;;;14.50;7.35;;;4.70;99.90;;;;;;4999810;28;20033;-86
2022/01/11 11:49:48;;;;;;;16.42;7.80;;;4.70;99.90;;;;;;4996096;28;20094;-85
2022/01/11 11:52:22;;;;;;;15.85;8.02;;;4.60;99.90;;;;;;5000041;28;20030;-84
2022/01/11 11:55:04;;;;;;;15.13;7.90;;;4.60;99.90;;;;;;4980136;28;20110;-84
2022/01/11 11:57:33;;;;;;;14.77;7.35;;;4.70;99.90;;;;;;4978296;28;20026;-82
2022/01/11 12:00:00;;;;;;;17.00;7.65;;;4.70;99.90;;;;;;4976666;28;20435;-82
2022/01/11 12:02:39;;;;;;;16.55;7.78;;;4.70;99.90;;;;;;4995332;28;20121;-82
2022/01/11 12:05:09;;;;;;;13.77;7.10;;;4.70;99.90;;;;;;4989803;28;20029;-84
2022/01/11 12:07:47;;;;;;;12.07;7.05;;;4.70;99.90;;;;;;4992997;28;20069;-83
2022/01/11 12:10:27;;;;;;;16.70;8.10;;;4.60;99.90;;;;;;4978189;28;20113;-83
2022/01/11 12:12:55;;;;;;;14.27;7.82;;;4.60;99.90;;;;;;4992256;28;20081;-83
2022/01/11 12:15:33;;;;;;;14.75;8.02;;;4.50;99.90;;;;;;4977196;28;20045;-84
2022/01/11 12:17:58;;;;;;;14.77;6.57;;;4.50;99.90;;;;;;4974079;28;20057;-82
2022/01/11 12:20:43;;;;;;;15.07;7.15;;;4.50;99.90;;;;;;4975655;28;20062;-84
2022/01/11 12:23:13;;;;;;;15.15;7.80;;;4.60;99.90;;;;;;4975271;28;20073;-83
2022/01/11 12:25:42;;;;;;;13.43;6.60;;;4.70;99.90;;;;;;4977190;28;20026;-83
2022/01/11 12:28:16;;;;;;;18.70;7.00;;;4.80;99.90;;;;;;4988842;28;20105;-83
2022/01/11 12:30:42;;;;;;;12.82;7.35;;;4.90;99.90;;;;;;4983951;22;20034;-69
2022/01/11 12:33:13;;;;;;;16.88;7.72;;;4.90;99.90;;;;;;4948103;28;20733;-71
2022/01/11 12:35:56;;;;;;;10.80;5.43;;;5.00;99.90;;;;;;4977744;28;20038;-70
2022/01/11 12:38:24;;;;;;;6.80;3.35;;;5.00;99.90;;;;;;4963045;28;20020;-71
2022/01/11 12:40:50;;;;;;;4.15;2.10;;;5.10;99.90;;;;;;4954834;28;20114;-70
2022/01/11 12:43:38;;;;;;;5.50;2.60;;;5.20;99.90;;;;;;4957559;28;20027;-71